Time;durP1;ratioP1;P1;durP2;ratioP2;P2;SDS_P1;SDS_P2;PMS_P1;PMS_P2;Temp;Humidity;BMP_temperature;BMP_pressure;BME280_temperature;BME280_humidity;BME280_pressure;Samples;Min_cycle;Max_cycle;Signal;HPM_P1;HPM_P2
2022/01/31 00:01:23;;;;;;;;;;;4.80;99.90;;;;;;4844708;29;19924;-80
2022/01/31 00:03:49;;;;;;;;;;;4.70;99.90;;;;;;4840826;29;19993;-80
2022/01/31 00:06:14;;;;;;;;;;;4.70;99.90;;;;;;4826928;29;20025;-80
2022/01/31 00:08:40;;;;;;;;;;;4.80;99.90;;;;;;4810229;29;19928;-81
2022/01/31 00:11:06;;;;;;;;;;;4.90;99.90;;;;;;4825359;29;19924;-81
2022/01/31 00:13:39;;;;;;;;;;;4.80;99.90;;;;;;4826504;29;19931;-80
2022/01/31 00:16:15;;;;;;;;;;;4.70;99.90;;;;;;4826378;29;19935;-81
2022/01/31 00:18:59;;;;;;;;;;;6.10;99.90;;;;;;4825016;29;19928;-81
2022/01/31 00:21:25;;;;;;;;;;;3.70;99.90;;;;;;4826355;29;19924;-81
2022/01/31 00:23:50;;;;;;;;;;;4.40;99.90;;;;;;4810185;29;19932;-80
2022/01/31 00:26:16;;;;;;;;;;;4.50;99.90;;;;;;4826671;29;20319;-80
2022/01/31 00:28:44;;;;;;;;;;;4.60;99.90;;;;;;4824653;29;20476;-80
2022/01/31 00:31:22;;;;;;;;;;;4.60;99.90;;;;;;4824930;29;19964;-80
2022/01/31 00:33:57;;;;;;;;;;;5.80;99.90;;;;;;4824548;29;19925;-81
2022/01/31 00:36:44;;;;;;;;;;;4.90;99.90;;;;;;4833060;29;19959;-81
2022/01/31 00:39:09;;;;;;;;;;;4.40;99.90;;;;;;4808697;29;20303;-80
2022/01/31 00:41:35;;;;;;;;;;;4.40;99.90;;;;;;4823924;29;19923;-79
2022/01/31 00:44:51;;;;;;;;;;;5.70;99.90;;;;;;4807748;29;20293;-80
2022/01/31 00:46:54;;;;;;;;;;;4.30;99.90;;;;;;4814862;29;20293;-80
2022/01/31 00:51:58;;;;;;;;;;;4.30;99.90;;;;;;4825600;29;19921;-79
2022/01/31 00:54:26;;;;;;;;;;;4.20;99.90;;;;;;4825224;29;19933;-79
2022/01/31 00:56:57;;;;;;;;;;;4.30;99.90;;;;;;4841603;29;20023;-78
2022/01/31 00:59:23;;;;;;;;;;;4.30;99.90;;;;;;4825914;29;19932;-78
2022/01/31 01:01:48;;;;;;;;;;;4.00;99.90;;;;;;4824834;29;19928;-78
2022/01/31 01:04:14;;;;;;;;;;;4.80;99.90;;;;;;4823852;29;19929;-78
2022/01/31 01:06:52;;;;;;;;;;;4.10;99.90;;;;;;4825415;29;19924;-79
2022/01/31 01:09:17;;;;;;;;;;;5.50;99.90;;;;;;4827102;29;20281;-79
2022/01/31 01:11:43;;;;;;;;;;;4.00;99.90;;;;;;4843227;29;19925;-80
2022/01/31 01:14:09;;;;;;;;;;;4.00;99.90;;;;;;4827769;29;19924;-80
2022/01/31 01:16:35;;;;;;;;;;;4.00;99.90;;;;;;4827916;29;19924;-79
2022/01/31 01:19:00;;;;;;;;;;;3.90;99.90;;;;;;4826295;29;19956;-80
2022/01/31 01:21:26;;;;;;;;;;;3.70;99.90;;;;;;4825524;29;20343;-79
2022/01/31 01:23:51;;;;;;;;;;;4.00;99.90;;;;;;4823656;29;19931;-80
2022/01/31 01:26:18;;;;;;;;;;;3.90;99.90;;;;;;4825648;29;19929;-80
2022/01/31 01:28:45;;;;;;;;;;;4.00;99.90;;;;;;4825240;29;19929;-80
2022/01/31 01:31:11;;;;;;;;;;;4.00;99.90;;;;;;4809744;29;19997;-80
2022/01/31 01:33:39;;;;;;;;;;;4.00;99.90;;;;;;4825242;29;20378;-78
2022/01/31 01:36:06;;;;;;;;;;;3.90;99.90;;;;;;4824355;29;19925;-79
2022/01/31 01:38:32;;;;;;;;;;;3.90;99.90;;;;;;4825357;29;19929;-79
2022/01/31 01:40:59;;;;;;;;;;;3.80;99.90;;;;;;4822914;29;19924;-79
2022/01/31 01:43:29;;;;;;;;;;;3.90;99.90;;;;;;4825220;29;20381;-79
2022/01/31 01:46:11;;;;;;;;;;;3.00;99.90;;;;;;4824906;29;19964;-79
2022/01/31 01:48:37;;;;;;;;;;;5.40;99.90;;;;;;4823740;29;19986;-79
2022/01/31 01:51:03;;;;;;;;;;;3.90;99.90;;;;;;4824702;29;19928;-79
2022/01/31 01:53:29;;;;;;;;;;;3.90;99.90;;;;;;4825005;29;20019;-79
2022/01/31 01:55:54;;;;;;;;;;;4.00;99.90;;;;;;4827641;29;19959;-79
2022/01/31 01:58:21;;;;;;;;;;;4.00;99.90;;;;;;4827001;29;19978;-79
2022/01/31 02:00:53;;;;;;;;;;;4.00;99.90;;;;;;4826143;29;19924;-79
2022/01/31 02:03:20;;;;;;;;;;;3.90;99.90;;;;;;4827058;29;20448;-79
2022/01/31 02:05:46;;;;;;;;;;;4.00;99.90;;;;;;4826891;29;20280;-79
2022/01/31 02:08:13;;;;;;;;;;;4.10;99.90;;;;;;4814378;29;19960;-80
2022/01/31 02:10:39;;;;;;;;;;;4.10;99.90;;;;;;4824513;29;19924;-80
2022/01/31 02:13:08;;;;;;;;;;;5.80;99.90;;;;;;4824856;29;20378;-80
2022/01/31 02:15:34;;;;;;;;;;;4.30;99.90;;;;;;4824585;29;20362;-80
2022/01/31 02:17:59;;;;;;;;;;;4.30;99.90;;;;;;4808473;29;19924;-80
2022/01/31 02:20:25;;;;;;;;;;;5.70;99.90;;;;;;4808370;29;19924;-80
2022/01/31 02:22:51;;;;;;;;;;;4.30;99.90;;;;;;4818789;29;19924;-80
2022/01/31 02:25:16;;;;;;;;;;;4.40;99.90;;;;;;4827211;29;19969;-81
2022/01/31 02:27:43;;;;;;;;;;;4.50;99.90;;;;;;4811182;29;19928;-80
2022/01/31 02:30:09;;;;;;;;;;;4.60;99.90;;;;;;4843071;29;19924;-80
2022/01/31 02:32:35;;;;;;;;;;;4.70;99.90;;;;;;4841910;29;19931;-80
2022/01/31 02:35:13;;;;;;;;;;;4.80;99.90;;;;;;4841534;29;19924;-79
2022/01/31 02:37:59;;;;;;;;;;;5.00;99.90;;;;;;4826326;29;19924;-79
2022/01/31 02:40:28;;;;;;;;;;;5.10;99.90;;;;;;4842315;29;19928;-79
2022/01/31 02:42:53;;;;;;;;;;;5.20;99.90;;;;;;4825058;29;19967;-79
2022/01/31 02:45:19;;;;;;;;;;;5.40;99.90;;;;;;4826178;29;19963;-79
2022/01/31 02:47:51;;;;;;;;;;;5.40;99.90;;;;;;4823918;29;19925;-79
2022/01/31 02:50:17;;;;;;;;;;;5.40;99.90;;;;;;4824227;29;19925;-79
2022/01/31 02:52:47;;;;;;;;;;;5.50;99.90;;;;;;4823875;29;19925;-79
2022/01/31 02:55:13;;;;;;;;;;;5.50;99.90;;;;;;4824606;29;19971;-79
2022/01/31 02:57:39;;;;;;;;;;;5.50;99.90;;;;;;4807475;29;20346;-79
2022/01/31 03:00:07;;;;;;;;;;;5.60;99.90;;;;;;4825301;29;20285;-77
2022/01/31 03:02:33;;;;;;;;;;;5.60;99.90;;;;;;4807732;29;19925;-79
2022/01/31 03:04:58;;;;;;;;;;;5.70;99.90;;;;;;4807236;29;19921;-79
2022/01/31 03:07:24;;;;;;;;;;;5.70;99.90;;;;;;4824128;29;19928;-79
2022/01/31 03:09:49;;;;;;;;;;;5.70;99.90;;;;;;4823851;29;19931;-79
2022/01/31 03:12:16;;;;;;;;;;;5.70;99.90;;;;;;4807232;29;19921;-79
2022/01/31 03:14:42;;;;;;;;;;;5.70;99.90;;;;;;4811937;29;19932;-79
2022/01/31 03:17:09;;;;;;;;;;;5.70;99.90;;;;;;4826374;29;19924;-80
2022/01/31 03:19:38;;;;;;;;;;;5.70;99.90;;;;;;4841803;29;19935;-80
2022/01/31 03:22:04;;;;;;;;;;;5.70;99.90;;;;;;4841818;29;19931;-80
2022/01/31 03:24:29;;;;;;;;;;;5.70;99.90;;;;;;4843907;29;19929;-79
2022/01/31 03:26:55;;;;;;;;;;;5.70;99.90;;;;;;4827215;29;19948;-79
2022/01/31 03:29:20;;;;;;;;;;;5.90;99.90;;;;;;4827926;29;19925;-79
2022/01/31 03:31:46;;;;;;;;;;;5.70;99.90;;;;;;4826846;29;19925;-79
2022/01/31 03:34:11;;;;;;;;;;;5.60;99.90;;;;;;4810910;29;20016;-80
2022/01/31 03:36:37;;;;;;;;;;;5.90;99.90;;;;;;4828356;29;19924;-79
2022/01/31 03:39:03;;;;;;;;;;;5.50;99.90;;;;;;4818426;29;20380;-79
2022/01/31 03:41:28;;;;;;;;;;;5.50;99.90;;;;;;4827267;29;19931;-79
2022/01/31 03:43:54;;;;;;;;;;;5.50;99.90;;;;;;4827099;29;20014;-79
2022/01/31 03:46:20;;;;;;;;;;;5.50;99.90;;;;;;4811317;29;19931;-80
2022/01/31 03:48:49;;;;;;;;;;;5.60;99.90;;;;;;4827067;29;19925;-78
2022/01/31 03:51:14;;;;;;;;;;;5.50;99.90;;;;;;4827360;29;20020;-79
2022/01/31 03:53:40;;;;;;;;;;;5.60;99.90;;;;;;4815728;29;19952;-79
2022/01/31 03:56:05;;;;;;;;;;;5.60;99.90;;;;;;4829186;29;19925;-79
2022/01/31 03:58:31;;;;;;;;;;;5.60;99.90;;;;;;4829081;29;20357;-79
2022/01/31 04:01:00;;;;;;;;;;;5.60;99.90;;;;;;4829961;29;20305;-79
2022/01/31 04:03:25;;;;;;;;;;;5.50;99.90;;;;;;4827878;29;19924;-79
2022/01/31 04:05:51;;;;;;;;;;;5.20;99.90;;;;;;4810367;29;19925;-79
2022/01/31 04:08:20;;;;;;;;;;;5.40;99.90;;;;;;4826250;29;19932;-79
2022/01/31 04:10:45;;;;;;;;;;;5.30;99.90;;;;;;4810070;29;19935;-79
2022/01/31 04:13:11;;;;;;;;;;;5.30;99.90;;;;;;4827677;29;20014;-79
2022/01/31 04:15:39;;;;;;;;;;;5.20;99.90;;;;;;4810224;29;20359;-79
2022/01/31 04:18:05;;;;;;;;;;;6.40;99.90;;;;;;4826857;29;19931;-79
2022/01/31 04:20:49;;;;;;;;;;;5.20;99.90;;;;;;4826887;29;20352;-79
2022/01/31 04:23:17;;;;;;;;;;;5.20;99.90;;;;;;4810488;29;20297;-80
2022/01/31 04:28:21;;;;;;;;;;;5.40;99.90;;;;;;4811014;29;19928;-80
2022/01/31 04:30:58;;;;;;;;;;;5.30;99.90;;;;;;4809926;29;19931;-80
2022/01/31 04:33:24;;;;;;;;;;;5.20;99.90;;;;;;4810322;29;20378;-80
2022/01/31 04:35:50;;;;;;;;;;;5.10;99.90;;;;;;4824551;29;20014;-80
2022/01/31 04:38:17;;;;;;;;;;;5.00;99.90;;;;;;4810597;29;19963;-80
2022/01/31 04:40:43;;;;;;;;;;;5.00;99.90;;;;;;4826161;29;19924;-81
2022/01/31 04:43:09;;;;;;;;;;;5.00;99.90;;;;;;4810485;29;19973;-80
2022/01/31 04:45:35;;;;;;;;;;;5.00;99.90;;;;;;4826384;29;20347;-80
2022/01/31 04:48:00;;;;;;;;;;;5.00;99.90;;;;;;4826124;29;19981;-80
2022/01/31 04:50:26;;;;;;;;;;;5.10;99.90;;;;;;4825590;29;19925;-80
2022/01/31 04:52:51;;;;;;;;;;;5.10;99.90;;;;;;4826184;29;19921;-79
2022/01/31 04:55:20;;;;;;;;;;;5.10;99.90;;;;;;4826674;29;20007;-79
2022/01/31 04:57:45;;;;;;;;;;;6.30;99.90;;;;;;4809557;29;19921;-79
2022/01/31 05:00:11;;;;;;;;;;;5.10;99.90;;;;;;4809493;29;19981;-78
2022/01/31 05:02:37;;;;;;;;;;;5.10;99.90;;;;;;4822314;29;19924;-79
2022/01/31 05:05:03;;;;;;;;;;;5.20;99.90;;;;;;4827275;29;19976;-79
2022/01/31 05:07:28;;;;;;;;;;;5.10;99.90;;;;;;4844448;29;19924;-80
2022/01/31 05:09:54;;;;;;;;;;;5.10;99.90;;;;;;4841911;29;19928;-79
2022/01/31 05:12:20;;;;;;;;;;;5.10;99.90;;;;;;4813234;29;19931;-79
2022/01/31 05:14:48;;;;;;;;;;;5.10;99.90;;;;;;4825734;29;19924;-79
2022/01/31 05:17:14;;;;;;;;;;;5.10;99.90;;;;;;4809183;29;19928;-78
2022/01/31 05:19:39;;;;;;;;;;;5.10;99.90;;;;;;4823962;29;20309;-79
2022/01/31 05:22:05;;;;;;;;;;;5.10;99.90;;;;;;4843989;29;20015;-79
2022/01/31 05:24:30;;;;;;;;;;;5.20;99.90;;;;;;4843696;29;20027;-79
2022/01/31 05:26:56;;;;;;;;;;;5.20;99.90;;;;;;4841827;29;19973;-79
2022/01/31 05:29:22;;;;;;;;;;;5.20;99.90;;;;;;4843781;29;20453;-79
2022/01/31 05:31:55;;;;;;;;;;;5.20;99.90;;;;;;4842870;29;19931;-78
2022/01/31 05:34:24;;;;;;;;;;;5.30;99.90;;;;;;4815342;29;19932;-79
2022/01/31 05:36:54;;;;;;;;;;;5.30;99.90;;;;;;4824794;29;20365;-79
2022/01/31 05:39:21;;;;;;;;;;;5.30;99.90;;;;;;4825274;29;19928;-79
2022/01/31 05:41:46;;;;;;;;;;;5.30;99.90;;;;;;4825806;29;20429;-78
2022/01/31 05:44:11;;;;;;;;;;;5.30;99.90;;;;;;4825633;29;19924;-78
2022/01/31 05:46:40;;;;;;;;;;;5.30;99.90;;;;;;4824308;29;19924;-78
2022/01/31 05:49:05;;;;;;;;;;;5.30;99.90;;;;;;4834657;29;19924;-79
2022/01/31 05:51:31;;;;;;;;;;;5.30;99.90;;;;;;4827149;29;19972;-80
2022/01/31 05:53:56;;;;;;;;;;;5.30;99.90;;;;;;4826536;29;19966;-80
2022/01/31 05:56:22;;;;;;;;;;;5.30;99.90;;;;;;4843178;29;20367;-79
2022/01/31 05:58:49;;;;;;;;;;;5.30;99.90;;;;;;4824897;29;19924;-79
2022/01/31 06:01:15;;;;;;;;;;;5.30;99.90;;;;;;4826197;29;19953;-78
2022/01/31 06:03:41;;;;;;;;;;;5.80;99.90;;;;;;4842920;29;19924;-80
2022/01/31 06:06:06;;;;;;;;;;;5.30;99.90;;;;;;4817738;29;19924;-79
2022/01/31 06:08:32;;;;;;;;;;;5.30;99.90;;;;;;4843289;29;19924;-79
2022/01/31 06:10:57;;;;;;;;;;;5.60;99.90;;;;;;4842655;29;19924;-79
2022/01/31 06:13:26;;;;;;;;;;;5.30;99.90;;;;;;4826265;29;19956;-82
2022/01/31 06:15:51;;;;;;;;;;;5.30;99.90;;;;;;4824442;29;20007;-79
2022/01/31 06:18:17;;;;;;;;;;;5.30;99.90;;;;;;4820485;29;20019;-79
2022/01/31 06:20:44;;;;;;;;;;;5.20;99.90;;;;;;4836120;29;19925;-74
2022/01/31 06:23:10;;;;;;;;;;;5.20;99.90;;;;;;4824254;29;19925;-75
2022/01/31 06:25:35;;;;;;;;;;;5.20;99.90;;;;;;4824572;29;20024;-77
2022/01/31 06:28:01;;;;;;;;;;;5.20;99.90;;;;;;4823249;29;19982;-76
2022/01/31 06:30:26;;;;;;;;;;;5.30;99.90;;;;;;4809344;29;20413;-74
2022/01/31 06:32:55;;;;;;;;;;;5.30;99.90;;;;;;4829003;29;20369;-75
2022/01/31 06:35:21;;;;;;;;;;;5.40;99.90;;;;;;4824715;29;19924;-74
2022/01/31 06:37:46;;;;;;;;;;;5.40;99.90;;;;;;4827565;29;19925;-80
2022/01/31 06:40:12;;;;;;;;;;;5.40;99.90;;;;;;4842924;29;19931;-75
2022/01/31 06:42:39;;;;;;;;;;;5.40;99.90;;;;;;4825412;29;19971;-74
2022/01/31 06:45:05;;;;;;;;;;;5.40;99.90;;;;;;4826838;29;19925;-78
2022/01/31 06:47:30;;;;;;;;;;;5.50;99.90;;;;;;4842496;29;19924;-74
2022/01/31 06:49:56;;;;;;;;;;;5.50;99.90;;;;;;4828533;29;19932;-72
2022/01/31 06:52:22;;;;;;;;;;;5.90;99.90;;;;;;4824399;29;19925;-73
2022/01/31 06:54:50;;;;;;;;;;;5.50;99.90;;;;;;4807502;29;19950;-74
2022/01/31 06:57:17;;;;;;;;;;;5.60;99.90;;;;;;4805111;29;19932;-78
2022/01/31 06:59:42;;;;;;;;;;;5.60;99.90;;;;;;4810219;29;20346;-78
2022/01/31 07:02:08;;;;;;;;;;;5.60;99.90;;;;;;4822808;29;19925;-78
2022/01/31 07:04:33;;;;;;;;;;;5.40;99.90;;;;;;4820958;29;19934;-78
2022/01/31 07:06:59;;;;;;;;;;;5.70;99.90;;;;;;4823274;29;19930;-78
2022/01/31 07:09:25;;;;;;;;;;;5.70;99.90;;;;;;4823561;29;19973;-78
2022/01/31 07:11:53;;;;;;;;;;;5.60;99.90;;;;;;4821108;29;20342;-78
2022/01/31 07:14:30;;;;;;;;;;;5.70;99.90;;;;;;4832548;29;19932;-78
2022/01/31 07:16:56;;;;;;;;;;;5.60;99.90;;;;;;4821890;29;20293;-78
2022/01/31 07:19:25;;;;;;;;;;;5.60;99.90;;;;;;4822662;29;19920;-78
2022/01/31 07:21:51;;;;;;;;;;;5.70;99.90;;;;;;4822840;29;20366;-78
2022/01/31 07:26:43;;;;;;;;;;;5.70;99.90;;;;;;4806547;29;19948;-77
2022/01/31 07:29:10;;;;;;;;;;;5.70;99.90;;;;;;4812711;24;20020;-78
2022/01/31 07:31:36;;;;;;;;;;;5.80;99.90;;;;;;4806091;29;19977;-79
2022/01/31 07:34:05;;;;;;;;;;;5.70;99.90;;;;;;4819501;29;19924;-78
2022/01/31 07:36:31;;;;;;;;;;;5.90;99.90;;;;;;4825327;29;20301;-78
2022/01/31 07:39:26;;;;;;;;;;;7.50;99.90;;;;;;4817360;29;19924;-78
2022/01/31 07:41:52;;;;;;;;;;;7.10;99.90;;;;;;4799091;29;19928;-78
2022/01/31 07:44:17;;;;;;;;;;;5.80;99.90;;;;;;4821844;29;19935;-78
2022/01/31 07:46:43;;;;;;;;;;;5.80;99.90;;;;;;4824977;29;20365;-78
2022/01/31 07:49:08;;;;;;;;;;;5.80;99.90;;;;;;4825409;29;19924;-78
2022/01/31 07:51:37;;;;;;;;;;;5.80;99.90;;;;;;4823721;29;20060;-78
2022/01/31 07:54:03;;;;;;;;;;;5.80;99.90;;;;;;4807873;29;20428;-78
2022/01/31 07:56:28;;;;;;;;;;;5.80;99.90;;;;;;4807332;29;20058;-78
2022/01/31 07:58:54;;;;;;;;;;;5.80;99.90;;;;;;4806338;29;20043;-78
2022/01/31 08:01:20;;;;;;;;;;;5.80;99.90;;;;;;4806763;29;19978;-79
2022/01/31 08:03:47;;;;;;;;;;;5.80;99.90;;;;;;4806766;29;20386;-79
2022/01/31 08:06:13;;;;;;;;;;;5.80;99.90;;;;;;4807056;29;19932;-79
2022/01/31 08:08:38;;;;;;;;;;;5.80;99.90;;;;;;4823457;29;19924;-79
2022/01/31 08:11:05;;;;;;;;;;;5.90;99.90;;;;;;4809500;29;19972;-79
2022/01/31 08:13:31;;;;;;;;;;;5.90;99.90;;;;;;4810494;29;19925;-78
2022/01/31 08:16:09;;;;;;;;;;;6.00;99.90;;;;;;4826856;29;20373;-77
2022/01/31 08:18:36;;;;;;;;;;;6.00;99.90;;;;;;4828240;29;19924;-76
2022/01/31 08:21:05;;;;;;;;;;;6.00;99.90;;;;;;4813180;29;20365;-77
2022/01/31 08:23:30;;;;;;;;;;;6.00;99.90;;;;;;4810421;29;19924;-80
2022/01/31 08:25:59;;;;;;;;;;;6.10;99.90;;;;;;4809877;29;19932;-77
2022/01/31 08:28:33;;;;;;;;;;;6.10;99.90;;;;;;4809166;29;19967;-77
2022/01/31 08:31:06;;;;;;;;;;;6.10;99.90;;;;;;4809626;29;19928;-77
2022/01/31 08:33:35;;;;;;;;;;;6.10;99.90;;;;;;4810096;29;19925;-77
2022/01/31 08:36:01;;;;;;;;;;;6.10;99.90;;;;;;4825554;29;19974;-77
2022/01/31 08:38:30;;;;;;;;;;;6.10;99.90;;;;;;4826223;29;19924;-77
2022/01/31 08:40:55;;;;;;;;;;;6.20;99.90;;;;;;4810131;29;20079;-77
2022/01/31 08:43:21;;;;;;;;;;;6.10;99.90;;;;;;4809773;29;20400;-77
2022/01/31 08:45:55;;;;;;;;;;;6.10;99.90;;;;;;4809542;29;19931;-77
2022/01/31 08:48:21;;;;;;;;;;;7.30;99.90;;;;;;4809507;29;19924;-77
2022/01/31 08:50:46;;;;;;;;;;;6.10;99.90;;;;;;4826103;29;20358;-78
2022/01/31 08:53:15;;;;;;;;;;;6.20;99.90;;;;;;4811423;29;19924;-76
2022/01/31 09:00:59;;;;;;;;;;;6.70;99.90;;;;;;5182398;23;19932;-75
2022/01/31 09:06:04;;;;;;;;;;;7.10;99.90;;;;;;4827345;29;20292;-75
2022/01/31 09:08:29;;;;;;;;;;;8.00;99.90;;;;;;4825785;29;20393;-75
2022/01/31 09:10:58;;;;;;;;;;;9.20;99.90;;;;;;4826515;29;19931;-74
2022/01/31 09:13:23;;;;;;;;;;;10.00;99.90;;;;;;4827793;29;19975;-82
2022/01/31 09:15:49;;;;;;;;;;;11.50;99.90;;;;;;4827359;29;19982;-74
2022/01/31 09:18:15;;;;;;;;;;;11.30;99.90;;;;;;4833220;29;19925;-75
2022/01/31 09:20:41;;;;;;;;;;;11.00;99.90;;;;;;4842239;29;19928;-80
2022/01/31 09:23:08;;;;;;;;;;;10.60;99.90;;;;;;4844980;29;19924;-84
2022/01/31 09:25:35;;;;;;;;;;;10.20;99.90;;;;;;4830213;29;20041;-83
2022/01/31 09:28:02;;;;;;;;;;;9.60;99.90;;;;;;4832538;29;19928;-77
2022/01/31 09:30:27;;;;;;;;;;;9.30;99.90;;;;;;4826742;29;19924;-79
2022/01/31 09:32:57;;;;;;;;;;;9.10;99.90;;;;;;4816868;29;20499;-79
2022/01/31 09:35:23;;;;;;;;;;;9.00;99.90;;;;;;4837001;29;20441;-83
2022/01/31 09:37:48;;;;;;;;;;;9.10;99.90;;;;;;4833596;29;19928;-83
2022/01/31 09:40:19;;;;;;;;;;;10.00;99.90;;;;;;4845596;29;19924;-82
2022/01/31 09:45:51;;;;;;;;;;;10.60;99.90;;;;;;4830626;29;20289;-82
2022/01/31 09:48:33;;;;;;;;;;;10.30;99.90;;;;;;4827938;29;19924;-78
2022/01/31 09:50:59;;;;;;;;;;;9.90;99.90;;;;;;4844674;29;20015;-75
2022/01/31 09:53:24;;;;;;;;;;;9.70;99.90;;;;;;4860988;29;20023;-74
2022/01/31 09:55:52;;;;;;;;;;;9.40;99.90;;;;;;4861456;29;20399;-74
2022/01/31 09:58:18;;;;;;;;;;;9.60;99.90;;;;;;4826149;29;20467;-75
2022/01/31 10:00:43;;;;;;;;;;;11.00;99.90;;;;;;4835388;29;20007;-75
2022/01/31 10:03:10;;;;;;;;;;;10.20;99.90;;;;;;4844364;29;19924;-75
2022/01/31 10:05:35;;;;;;;;;;;10.30;99.90;;;;;;4832943;29;19932;-74
2022/01/31 10:08:14;;;;;;;;;;;10.40;99.90;;;;;;4826959;29;19924;-74
2022/01/31 10:10:42;;;;;;;;;;;10.50;99.90;;;;;;4826029;29;19924;-74
2022/01/31 10:16:27;;;;;;;;;;;10.10;99.90;;;;;;4810934;29;19924;-73
2022/01/31 10:19:03;;;;;;;;;;;10.00;99.90;;;;;;4822336;29;19932;-72
2022/01/31 10:21:29;;;;;;;;;;;9.50;99.90;;;;;;4821270;29;19927;-73
2022/01/31 10:23:55;;;;;;;;;;;9.00;99.90;;;;;;4842401;29;19925;-74
2022/01/31 10:26:30;;;;;;;;;;;8.70;99.90;;;;;;4821386;29;19924;-73
2022/01/31 10:29:15;;;;;;;;;;;8.30;99.90;;;;;;4832145;29;19967;-74
2022/01/31 10:31:58;;;;;;;;;;;8.00;99.90;;;;;;4841044;29;19927;-74
2022/01/31 10:34:25;;;;;;;;;;;7.80;99.90;;;;;;4808808;29;19928;-76
2022/01/31 10:36:54;;;;;;;;;;;7.60;99.90;;;;;;4825013;29;20020;-75
2022/01/31 10:53:17;;;;;;;;;;;8.30;99.90;;;;;;4813902;29;19925;-74
2022/01/31 10:55:51;;;;;;;;;;;7.30;99.90;;;;;;4837977;29;20292;-74
2022/01/31 10:58:19;;;;;;;;;;;7.50;99.90;;;;;;4832231;29;19931;-74
2022/01/31 11:00:44;;;;;;;;;;;7.70;99.90;;;;;;4829061;29;20019;-74
2022/01/31 11:03:45;;;;;;;;;;;7.80;99.90;;;;;;4832010;29;20449;-76
2022/01/31 11:06:10;;;;;;;;;;;7.70;99.90;;;;;;4824496;29;19928;-77
2022/01/31 11:08:36;;;;;;;;;;;7.60;99.90;;;;;;4823066;29;19920;-75
2022/01/31 11:11:02;;;;;;;;;;;7.60;99.90;;;;;;4825210;29;20278;-74
2022/01/31 11:13:29;;;;;;;;;;;7.50;99.90;;;;;;4840445;29;19932;-73
2022/01/31 11:15:55;;;;;;;;;;;7.50;99.90;;;;;;4826167;29;20007;-74
2022/01/31 11:18:21;;;;;;;;;;;7.70;99.90;;;;;;4824168;29;20297;-74
2022/01/31 11:20:53;;;;;;;;;;;8.00;99.90;;;;;;4823441;29;19924;-73
2022/01/31 11:23:21;;;;;;;;;;;8.20;99.90;;;;;;4823718;29;20015;-73
2022/01/31 11:25:47;;;;;;;;;;;8.40;99.90;;;;;;4827109;29;19977;-74
2022/01/31 11:28:13;;;;;;;;;;;8.50;99.90;;;;;;4852795;29;20274;-75
2022/01/31 11:30:40;;;;;;;;;;;8.80;99.90;;;;;;4859981;29;19931;-73
2022/01/31 11:33:05;;;;;;;;;;;8.80;99.90;;;;;;4860411;29;20012;-75
2022/01/31 11:35:31;;;;;;;;;;;8.90;99.90;;;;;;4840632;29;20369;-73
2022/01/31 11:37:56;;;;;;;;;;;9.50;99.90;;;;;;4859182;29;20384;-74
2022/01/31 11:40:22;;;;;;;;;;;10.80;99.90;;;;;;4860231;29;19931;-74
2022/01/31 11:42:48;;;;;;;;;;;12.00;99.90;;;;;;4843304;29;19924;-74
2022/01/31 11:45:33;;;;;;;;;;;13.10;99.90;;;;;;4861841;29;19968;-74
2022/01/31 11:48:04;;;;;;;;;;;13.80;99.90;;;;;;4846483;29;19924;-74
2022/01/31 11:50:40;;;;;;;;;;;13.70;99.90;;;;;;4833040;29;20389;-75
2022/01/31 11:53:06;;;;;;;;;;;13.10;99.90;;;;;;4827521;29;20015;-73
2022/01/31 11:55:35;;;;;;;;;;;12.40;99.90;;;;;;4827935;29;20342;-75
2022/01/31 11:58:06;;;;;;;;;;;11.40;99.90;;;;;;4835805;29;19979;-74
2022/01/31 12:00:34;;;;;;;;;;;11.00;99.90;;;;;;4826313;29;20012;-74
2022/01/31 12:03:13;;;;;;;;;;;10.70;99.90;;;;;;4826722;29;20406;-75
2022/01/31 12:07:39;;;;;;;13.80;2.97;;;10.10;99.90;;;;;;5089662;27;20954;-71
2022/01/31 12:10:10;;;;;;;12.15;2.55;;;9.80;99.90;;;;;;5083100;28;20048;-71
2022/01/31 12:12:55;;;;;;;13.52;3.05;;;9.70;99.90;;;;;;5086644;28;20127;-72
2022/01/31 12:24:00;;;;;;;17.07;4.53;;;9.10;99.90;;;;;;5087988;28;20052;-72
2022/01/31 12:26:31;;;;;;;15.45;3.80;;;9.00;99.90;;;;;;5087461;28;20098;-73
2022/01/31 12:28:59;;;;;;;18.92;3.60;;;9.00;99.90;;;;;;5089393;28;20044;-71
2022/01/31 12:31:48;;;;;;;18.48;3.95;;;8.90;99.90;;;;;;5071231;28;20421;-74
2022/01/31 12:34:28;;;;;;;18.33;4.50;;;8.70;99.90;;;;;;5047381;28;20481;-73
2022/01/31 12:36:57;;;;;;;17.23;4.35;;;8.60;99.90;;;;;;5081221;28;20374;-73
2022/01/31 12:39:28;;;;;;;19.65;4.38;;;8.60;99.90;;;;;;5049392;28;20103;-73
2022/01/31 12:42:01;;;;;;;24.48;4.68;;;8.70;99.90;;;;;;5048469;28;20037;-75
2022/01/31 12:44:35;;;;;;;20.55;4.90;;;8.60;99.90;;;;;;5081441;28;20057;-73
2022/01/31 12:47:11;;;;;;;18.95;4.38;;;8.50;99.90;;;;;;5091041;28;20052;-74
2022/01/31 12:49:38;;;;;;;16.80;3.90;;;8.50;99.90;;;;;;5074646;28;20084;-76
2022/01/31 12:52:10;;;;;;;20.17;4.25;;;8.50;99.90;;;;;;5072105;28;20041;-74
2022/01/31 12:54:37;;;;;;;18.27;4.07;;;8.40;99.90;;;;;;5078843;28;20091;-72
2022/01/31 12:57:10;;;;;;;19.55;4.13;;;8.40;99.90;;;;;;5077493;28;20052;-73
2022/01/31 12:59:36;;;;;;;18.08;4.72;;;8.40;99.90;;;;;;5068582;28;20075;-72
2022/01/31 13:02:08;;;;;;;19.15;3.95;;;8.30;99.90;;;;;;5066049;28;20080;-75
2022/01/31 13:04:34;;;;;;;19.67;4.35;;;8.30;99.90;;;;;;5066912;28;20049;-75
2022/01/31 13:07:01;;;;;;;;;;;8.20;99.90;;;;;;5067270;28;20065;-75
2022/01/31 13:09:28;;;;;;;19.33;3.67;;;8.20;99.90;;;;;;5066816;28;19920;-75
2022/01/31 13:12:16;;;;;;;16.80;3.92;;;8.30;99.90;;;;;;5101322;28;20055;-78
2022/01/31 13:14:52;;;;;;;14.02;3.67;;;8.30;99.90;;;;;;5067035;28;20064;-75
2022/01/31 13:17:24;;;;;;;13.77;3.80;;;8.30;99.90;;;;;;5060912;28;20044;-74
2022/01/31 13:19:55;;;;;;;16.25;3.97;;;8.20;99.90;;;;;;5051657;28;20295;-75
2022/01/31 13:22:38;;;;;;;19.05;3.90;;;8.10;99.90;;;;;;5054048;28;20036;-76
2022/01/31 13:25:09;;;;;;;21.33;3.78;;;8.00;99.90;;;;;;5054042;28;20048;-73
2022/01/31 13:27:39;;;;;;;21.05;4.05;;;8.00;99.90;;;;;;5055023;28;20049;-72
2022/01/31 13:30:07;;;;;;;17.65;3.72;;;8.00;99.90;;;;;;5052123;28;20041;-73
2022/01/31 13:32:35;;;;;;;15.18;3.15;;;7.90;99.90;;;;;;5055712;28;20048;-75
2022/01/31 13:35:15;;;;;;;14.52;3.33;;;7.90;99.90;;;;;;5049837;28;20496;-77
2022/01/31 13:37:50;;;;;;;12.93;2.78;;;7.90;99.90;;;;;;5052078;28;20037;-73
2022/01/31 13:40:20;;;;;;;14.48;3.17;;;7.90;99.90;;;;;;5053628;28;20075;-76
2022/01/31 13:42:59;;;;;;;19.30;3.20;;;7.90;99.90;;;;;;5085944;28;20112;-73
2022/01/31 13:45:31;;;;;;;13.45;3.55;;;7.90;99.90;;;;;;5056691;28;20056;-73
2022/01/31 13:48:12;;;;;;;13.10;3.92;;;8.00;99.90;;;;;;5052662;28;20489;-75
2022/01/31 13:50:45;;;;;;;15.77;3.60;;;8.00;99.90;;;;;;5052598;28;20136;-76
2022/01/31 13:53:13;;;;;;;18.52;3.78;;;8.00;99.90;;;;;;5054270;28;20080;-73
2022/01/31 13:55:49;;;;;;;16.08;3.50;;;7.90;99.90;;;;;;5053327;28;20095;-73
2022/01/31 13:58:29;;;;;;;16.83;2.80;;;7.90;99.90;;;;;;5052772;28;20555;-74
2022/01/31 14:00:55;;;;;;;11.43;2.45;;;8.00;99.90;;;;;;5055649;28;20041;-76
2022/01/31 14:03:26;;;;;;;9.88;2.90;;;7.80;99.90;;;;;;5053023;28;20049;-75
2022/01/31 14:05:56;;;;;;;11.40;2.53;;;7.70;99.90;;;;;;5051308;28;20049;-73
2022/01/31 14:08:36;;;;;;;10.27;2.63;;;7.70;99.90;;;;;;5066031;28;20100;-74
2022/01/31 14:11:10;;;;;;;8.43;2.03;;;7.70;99.90;;;;;;5033820;28;20071;-74
2022/01/31 14:13:40;;;;;;;13.95;2.83;;;7.60;99.90;;;;;;5033574;28;20038;-74
2022/01/31 14:16:09;;;;;;;10.65;2.72;;;7.60;99.90;;;;;;5050703;28;20073;-75
2022/01/31 14:18:38;;;;;;;10.20;2.53;;;7.50;99.90;;;;;;5053331;28;20045;-75
2022/01/31 14:21:07;;;;;;;14.45;3.53;;;7.60;99.90;;;;;;5053478;28;20046;-74
2022/01/31 14:23:38;;;;;;;6.95;2.28;;;7.50;99.90;;;;;;5052020;28;20087;-75
2022/01/31 14:26:09;;;;;;;10.15;2.15;;;7.50;99.90;;;;;;5050709;28;20095;-76
2022/01/31 14:28:37;;;;;;;9.77;2.60;;;7.40;99.90;;;;;;5052992;28;20040;-75
2022/01/31 14:31:03;;;;;;;12.30;3.13;;;7.40;99.90;;;;;;5053096;28;20047;-79
2022/01/31 14:33:30;;;;;;;11.60;2.97;;;7.30;99.90;;;;;;5051638;28;20049;-76
2022/01/31 14:36:07;;;;;;;9.15;2.90;;;7.30;99.90;;;;;;5053395;28;20081;-76
2022/01/31 14:38:44;;;;;;;9.80;2.47;;;7.30;99.90;;;;;;5052644;28;20431;-75
2022/01/31 14:41:28;;;;;;;11.75;2.40;;;7.30;99.90;;;;;;5051607;28;20500;-79
2022/01/31 14:49:23;;;;;;;8.55;2.03;;;7.20;99.90;;;;;;5051741;28;20080;-78
2022/01/31 14:51:50;;;;;;;;;;;7.10;99.90;;;;;;5053293;28;20072;-76
2022/01/31 14:54:17;;;;;;;6.13;1.67;;;6.90;99.90;;;;;;5064339;28;19920;-73
2022/01/31 14:56:45;;;;;;;14.20;2.33;;;6.80;99.90;;;;;;5058762;28;20081;-74
2022/01/31 14:59:11;;;;;;;12.60;2.50;;;6.60;99.90;;;;;;5052071;28;20063;-76
2022/01/31 15:01:36;;;;;;;;;;;6.60;99.90;;;;;;5049526;28;20048;-72
2022/01/31 15:04:15;;;;;;;10.85;2.42;;;6.60;99.90;;;;;;5086540;28;19920;-73
2022/01/31 15:06:41;;;;;;;12.43;2.22;;;6.70;99.90;;;;;;5052271;28;20057;-72
2022/01/31 15:09:07;;;;;;;;;;;6.70;99.90;;;;;;5065974;28;20055;-73